sensor_id;sensor_type;location;lat;lon;timestamp;P1;durP1;ratioP1;P2;durP2;ratioP2
53261;SDS011;39658;51.090;-1.786;2023-07-31T00:00:19;2.08;;;0.60;;
53261;SDS011;39658;51.090;-1.786;2023-07-31T00:02:46;1.98;;;0.32;;
53261;SDS011;39658;51.090;-1.786;2023-07-31T00:05:12;3.78;;;0.50;;
53261;SDS011;39658;51.090;-1.786;2023-07-31T00:07:39;3.42;;;1.10;;
53261;SDS011;39658;51.090;-1.786;2023-07-31T00:10:06;0.95;;;0.30;;
53261;SDS011;39658;51.090;-1.786;2023-07-31T00:12:35;3.10;;;0.63;;
53261;SDS011;39658;51.090;-1.786;2023-07-31T00:15:02;1.70;;;0.68;;
53261;SDS011;39658;51.090;-1.786;2023-07-31T00:17:29;2.72;;;0.80;;
53261;SDS011;39658;51.090;-1.786;2023-07-31T00:19:56;4.38;;;0.60;;
53261;SDS011;39658;51.090;-1.786;2023-07-31T00:22:23;3.13;;;1.20;;
53261;SDS011;39658;51.090;-1.786;2023-07-31T00:24:49;5.00;;;1.55;;
53261;SDS011;39658;51.090;-1.786;2023-07-31T00:27:16;1.60;;;0.47;;
53261;SDS011;39658;51.090;-1.786;2023-07-31T00:29:44;2.83;;;0.93;;
53261;SDS011;39658;51.090;-1.786;2023-07-31T00:32:11;3.47;;;0.93;;
53261;SDS011;39658;51.090;-1.786;2023-07-31T00:34:38;7.10;;;1.20;;
53261;SDS011;39658;51.090;-1.786;2023-07-31T00:37:05;4.55;;;1.23;;
53261;SDS011;39658;51.090;-1.786;2023-07-31T00:39:33;11.75;;;0.95;;
53261;SDS011;39658;51.090;-1.786;2023-07-31T00:42:00;9.05;;;1.50;;
53261;SDS011;39658;51.090;-1.786;2023-07-31T00:44:27;8.88;;;1.00;;
53261;SDS011;39658;51.090;-1.786;2023-07-31T00:46:55;5.18;;;1.27;;
53261;SDS011;39658;51.090;-1.786;2023-07-31T00:49:23;5.90;;;1.85;;
53261;SDS011;39658;51.090;-1.786;2023-07-31T00:51:50;2.65;;;0.80;;
53261;SDS011;39658;51.090;-1.786;2023-07-31T00:54:17;7.65;;;1.02;;
53261;SDS011;39658;51.090;-1.786;2023-07-31T00:56:44;6.22;;;1.48;;
53261;SDS011;39658;51.090;-1.786;2023-07-31T00:59:13;7.40;;;1.23;;
53261;SDS011;39658;51.090;-1.786;2023-07-31T01:01:40;6.65;;;1.35;;
53261;SDS011;39658;51.090;-1.786;2023-07-31T01:04:08;3.72;;;1.50;;
53261;SDS011;39658;51.090;-1.786;2023-07-31T01:06:37;5.00;;;1.30;;
53261;SDS011;39658;51.090;-1.786;2023-07-31T01:09:10;2.55;;;0.60;;
53261;SDS011;39658;51.090;-1.786;2023-07-31T01:11:46;1.98;;;0.77;;
53261;SDS011;39658;51.090;-1.786;2023-07-31T01:14:18;5.78;;;1.30;;
53261;SDS011;39658;51.090;-1.786;2023-07-31T01:16:45;3.47;;;1.58;;
53261;SDS011;39658;51.090;-1.786;2023-07-31T01:19:13;4.22;;;0.82;;
53261;SDS011;39658;51.090;-1.786;2023-07-31T01:21:48;4.85;;;1.30;;
53261;SDS011;39658;51.090;-1.786;2023-07-31T01:24:28;5.10;;;0.77;;
53261;SDS011;39658;51.090;-1.786;2023-07-31T01:27:02;5.05;;;1.55;;
53261;SDS011;39658;51.090;-1.786;2023-07-31T01:29:36;2.90;;;0.70;;
53261;SDS011;39658;51.090;-1.786;2023-07-31T01:32:09;2.90;;;0.90;;
53261;SDS011;39658;51.090;-1.786;2023-07-31T01:34:38;1.65;;;0.30;;
53261;SDS011;39658;51.090;-1.786;2023-07-31T01:37:06;4.60;;;1.27;;
53261;SDS011;39658;51.090;-1.786;2023-07-31T01:39:33;4.97;;;0.60;;
53261;SDS011;39658;51.090;-1.786;2023-07-31T01:42:01;2.65;;;0.82;;
53261;SDS011;39658;51.090;-1.786;2023-07-31T01:44:28;2.70;;;0.90;;
53261;SDS011;39658;51.090;-1.786;2023-07-31T01:46:55;6.25;;;0.85;;
53261;SDS011;39658;51.090;-1.786;2023-07-31T01:49:22;3.88;;;1.05;;
53261;SDS011;39658;51.090;-1.786;2023-07-31T01:51:48;2.92;;;0.70;;
53261;SDS011;39658;51.090;-1.786;2023-07-31T01:54:15;3.55;;;0.95;;
53261;SDS011;39658;51.090;-1.786;2023-07-31T01:56:42;4.20;;;1.00;;
53261;SDS011;39658;51.090;-1.786;2023-07-31T01:59:10;2.75;;;0.85;;
53261;SDS011;39658;51.090;-1.786;2023-07-31T02:01:37;3.33;;;0.93;;
53261;SDS011;39658;51.090;-1.786;2023-07-31T02:04:03;2.05;;;0.60;;
53261;SDS011;39658;51.090;-1.786;2023-07-31T02:06:31;2.28;;;0.93;;
53261;SDS011;39658;51.090;-1.786;2023-07-31T02:08:57;3.72;;;0.98;;
53261;SDS011;39658;51.090;-1.786;2023-07-31T02:11:24;4.35;;;0.57;;
53261;SDS011;39658;51.090;-1.786;2023-07-31T02:13:51;2.92;;;0.80;;
53261;SDS011;39658;51.090;-1.786;2023-07-31T02:16:19;3.42;;;0.52;;
53261;SDS011;39658;51.090;-1.786;2023-07-31T02:18:46;5.82;;;1.00;;
53261;SDS011;39658;51.090;-1.786;2023-07-31T02:21:12;3.10;;;0.85;;
53261;SDS011;39658;51.090;-1.786;2023-07-31T02:23:39;2.35;;;0.93;;
53261;SDS011;39658;51.090;-1.786;2023-07-31T02:26:06;1.52;;;0.55;;
53261;SDS011;39658;51.090;-1.786;2023-07-31T02:28:33;3.70;;;0.80;;
53261;SDS011;39658;51.090;-1.786;2023-07-31T02:30:59;1.27;;;0.55;;
53261;SDS011;39658;51.090;-1.786;2023-07-31T02:33:28;2.50;;;0.73;;
53261;SDS011;39658;51.090;-1.786;2023-07-31T02:35:54;3.15;;;0.80;;
53261;SDS011;39658;51.090;-1.786;2023-07-31T02:38:21;1.45;;;0.22;;
53261;SDS011;39658;51.090;-1.786;2023-07-31T02:40:48;6.30;;;0.80;;
53261;SDS011;39658;51.090;-1.786;2023-07-31T02:43:14;4.78;;;0.90;;
53261;SDS011;39658;51.090;-1.786;2023-07-31T02:45:41;1.65;;;0.47;;
53261;SDS011;39658;51.090;-1.786;2023-07-31T02:48:08;2.63;;;0.82;;
53261;SDS011;39658;51.090;-1.786;2023-07-31T02:50:36;2.78;;;0.98;;
53261;SDS011;39658;51.090;-1.786;2023-07-31T02:53:03;2.75;;;0.45;;
53261;SDS011;39658;51.090;-1.786;2023-07-31T02:55:30;0.98;;;0.45;;
53261;SDS011;39658;51.090;-1.786;2023-07-31T02:57:56;3.60;;;1.00;;
53261;SDS011;39658;51.090;-1.786;2023-07-31T03:00:24;3.17;;;0.60;;
53261;SDS011;39658;51.090;-1.786;2023-07-31T03:02:50;1.73;;;0.50;;
53261;SDS011;39658;51.090;-1.786;2023-07-31T03:05:17;1.60;;;0.40;;
53261;SDS011;39658;51.090;-1.786;2023-07-31T03:07:45;1.58;;;0.50;;
53261;SDS011;39658;51.090;-1.786;2023-07-31T03:10:12;3.65;;;0.73;;
53261;SDS011;39658;51.090;-1.786;2023-07-31T03:12:39;1.30;;;0.40;;
53261;SDS011;39658;51.090;-1.786;2023-07-31T03:15:06;2.47;;;0.65;;
53261;SDS011;39658;51.090;-1.786;2023-07-31T03:17:34;2.38;;;0.82;;
53261;SDS011;39658;51.090;-1.786;2023-07-31T03:20:01;2.28;;;0.80;;
53261;SDS011;39658;51.090;-1.786;2023-07-31T03:22:27;1.55;;;0.63;;
53261;SDS011;39658;51.090;-1.786;2023-07-31T03:24:56;2.13;;;0.50;;
53261;SDS011;39658;51.090;-1.786;2023-07-31T03:27:22;5.07;;;0.82;;
53261;SDS011;39658;51.090;-1.786;2023-07-31T03:29:49;1.00;;;0.50;;
53261;SDS011;39658;51.090;-1.786;2023-07-31T03:32:16;5.13;;;0.98;;
53261;SDS011;39658;51.090;-1.786;2023-07-31T03:34:43;1.98;;;0.75;;
53261;SDS011;39658;51.090;-1.786;2023-07-31T03:37:10;2.92;;;0.70;;
53261;SDS011;39658;51.090;-1.786;2023-07-31T03:39:37;3.90;;;0.57;;
53261;SDS011;39658;51.090;-1.786;2023-07-31T03:42:05;2.53;;;0.90;;
53261;SDS011;39658;51.090;-1.786;2023-07-31T03:44:32;4.20;;;0.60;;
53261;SDS011;39658;51.090;-1.786;2023-07-31T03:46:59;1.55;;;0.70;;
53261;SDS011;39658;51.090;-1.786;2023-07-31T03:49:26;4.25;;;1.10;;
53261;SDS011;39658;51.090;-1.786;2023-07-31T03:51:53;7.22;;;0.65;;
53261;SDS011;39658;51.090;-1.786;2023-07-31T03:54:20;5.45;;;0.80;;
53261;SDS011;39658;51.090;-1.786;2023-07-31T03:56:47;2.60;;;0.85;;
53261;SDS011;39658;51.090;-1.786;2023-07-31T03:59:15;3.17;;;0.95;;
53261;SDS011;39658;51.090;-1.786;2023-07-31T04:01:42;2.20;;;0.98;;
53261;SDS011;39658;51.090;-1.786;2023-07-31T04:04:08;1.85;;;0.73;;
53261;SDS011;39658;51.090;-1.786;2023-07-31T04:06:35;2.85;;;0.93;;
53261;SDS011;39658;51.090;-1.786;2023-07-31T04:09:02;2.00;;;0.85;;
53261;SDS011;39658;51.090;-1.786;2023-07-31T04:11:29;3.28;;;0.98;;
53261;SDS011;39658;51.090;-1.786;2023-07-31T04:13:55;2.38;;;0.95;;
53261;SDS011;39658;51.090;-1.786;2023-07-31T04:16:24;4.45;;;1.08;;
53261;SDS011;39658;51.090;-1.786;2023-07-31T04:18:50;3.88;;;1.20;;
53261;SDS011;39658;51.090;-1.786;2023-07-31T04:21:17;3.13;;;1.10;;
53261;SDS011;39658;51.090;-1.786;2023-07-31T04:23:44;3.03;;;0.70;;
53261;SDS011;39658;51.090;-1.786;2023-07-31T04:26:11;1.63;;;0.55;;
53261;SDS011;39658;51.090;-1.786;2023-07-31T04:28:37;2.42;;;0.80;;
53261;SDS011;39658;51.090;-1.786;2023-07-31T04:31:04;2.88;;;0.85;;
53261;SDS011;39658;51.090;-1.786;2023-07-31T04:33:32;4.63;;;0.82;;
53261;SDS011;39658;51.090;-1.786;2023-07-31T04:35:59;3.25;;;0.90;;
53261;SDS011;39658;51.090;-1.786;2023-07-31T04:38:26;2.03;;;0.60;;
53261;SDS011;39658;51.090;-1.786;2023-07-31T04:40:52;2.47;;;0.60;;
53261;SDS011;39658;51.090;-1.786;2023-07-31T04:43:19;4.95;;;1.05;;
53261;SDS011;39658;51.090;-1.786;2023-07-31T04:45:46;2.88;;;0.60;;
53261;SDS011;39658;51.090;-1.786;2023-07-31T04:48:15;6.97;;;0.73;;
53261;SDS011;39658;51.090;-1.786;2023-07-31T04:50:43;2.60;;;0.75;;
53261;SDS011;39658;51.090;-1.786;2023-07-31T04:53:09;3.85;;;0.63;;
53261;SDS011;39658;51.090;-1.786;2023-07-31T04:55:36;4.43;;;0.63;;
53261;SDS011;39658;51.090;-1.786;2023-07-31T04:58:04;2.40;;;0.85;;
53261;SDS011;39658;51.090;-1.786;2023-07-31T05:00:31;1.02;;;0.40;;
53261;SDS011;39658;51.090;-1.786;2023-07-31T05:02:58;3.83;;;0.68;;
53261;SDS011;39658;51.090;-1.786;2023-07-31T05:05:25;1.92;;;0.82;;
53261;SDS011;39658;51.090;-1.786;2023-07-31T05:07:53;1.60;;;0.93;;
53261;SDS011;39658;51.090;-1.786;2023-07-31T05:10:20;2.38;;;0.70;;
53261;SDS011;39658;51.090;-1.786;2023-07-31T05:12:46;2.60;;;0.90;;
53261;SDS011;39658;51.090;-1.786;2023-07-31T05:15:13;3.65;;;0.70;;
53261;SDS011;39658;51.090;-1.786;2023-07-31T05:17:40;2.10;;;0.75;;
53261;SDS011;39658;51.090;-1.786;2023-07-31T05:20:07;2.80;;;0.50;;
53261;SDS011;39658;51.090;-1.786;2023-07-31T05:22:34;4.18;;;1.33;;
53261;SDS011;39658;51.090;-1.786;2023-07-31T05:25:02;2.53;;;0.80;;
53261;SDS011;39658;51.090;-1.786;2023-07-31T05:27:30;1.80;;;0.50;;
53261;SDS011;39658;51.090;-1.786;2023-07-31T05:29:57;2.00;;;0.85;;
53261;SDS011;39658;51.090;-1.786;2023-07-31T05:32:24;2.08;;;0.63;;
53261;SDS011;39658;51.090;-1.786;2023-07-31T05:34:51;3.00;;;0.73;;
53261;SDS011;39658;51.090;-1.786;2023-07-31T05:37:18;0.70;;;0.28;;
53261;SDS011;39658;51.090;-1.786;2023-07-31T05:39:45;2.80;;;0.70;;
53261;SDS011;39658;51.090;-1.786;2023-07-31T05:42:13;2.40;;;0.30;;
53261;SDS011;39658;51.090;-1.786;2023-07-31T05:44:40;3.17;;;0.90;;
53261;SDS011;39658;51.090;-1.786;2023-07-31T05:47:07;1.60;;;0.60;;
53261;SDS011;39658;51.090;-1.786;2023-07-31T05:49:33;3.58;;;1.00;;
53261;SDS011;39658;51.090;-1.786;2023-07-31T05:52:00;3.00;;;0.85;;
53261;SDS011;39658;51.090;-1.786;2023-07-31T05:54:27;2.65;;;0.82;;
53261;SDS011;39658;51.090;-1.786;2023-07-31T05:56:54;2.47;;;0.68;;
53261;SDS011;39658;51.090;-1.786;2023-07-31T05:59:22;1.75;;;0.70;;
53261;SDS011;39658;51.090;-1.786;2023-07-31T06:01:49;3.80;;;0.70;;
53261;SDS011;39658;51.090;-1.786;2023-07-31T06:04:15;3.83;;;0.73;;
53261;SDS011;39658;51.090;-1.786;2023-07-31T06:06:43;3.38;;;0.90;;
53261;SDS011;39658;51.090;-1.786;2023-07-31T06:09:10;1.58;;;0.40;;
53261;SDS011;39658;51.090;-1.786;2023-07-31T06:11:37;1.02;;;0.32;;
53261;SDS011;39658;51.090;-1.786;2023-07-31T06:14:04;1.65;;;0.50;;
53261;SDS011;39658;51.090;-1.786;2023-07-31T06:16:32;1.00;;;0.20;;
53261;SDS011;39658;51.090;-1.786;2023-07-31T06:18:58;3.72;;;0.68;;
53261;SDS011;39658;51.090;-1.786;2023-07-31T06:21:25;1.23;;;0.43;;
53261;SDS011;39658;51.090;-1.786;2023-07-31T06:23:52;2.08;;;0.73;;
53261;SDS011;39658;51.090;-1.786;2023-07-31T06:26:19;2.70;;;0.75;;
53261;SDS011;39658;51.090;-1.786;2023-07-31T06:28:46;2.67;;;0.50;;
53261;SDS011;39658;51.090;-1.786;2023-07-31T06:31:12;1.90;;;0.68;;
53261;SDS011;39658;51.090;-1.786;2023-07-31T06:33:41;0.77;;;0.40;;
53261;SDS011;39658;51.090;-1.786;2023-07-31T06:36:07;3.75;;;1.00;;
53261;SDS011;39658;51.090;-1.786;2023-07-31T06:38:34;1.33;;;0.63;;
53261;SDS011;39658;51.090;-1.786;2023-07-31T06:41:02;3.55;;;0.60;;
53261;SDS011;39658;51.090;-1.786;2023-07-31T06:43:29;2.20;;;1.08;;
53261;SDS011;39658;51.090;-1.786;2023-07-31T06:45:56;3.63;;;0.70;;
53261;SDS011;39658;51.090;-1.786;2023-07-31T06:48:23;2.83;;;1.10;;
53261;SDS011;39658;51.090;-1.786;2023-07-31T06:50:51;1.38;;;0.38;;
53261;SDS011;39658;51.090;-1.786;2023-07-31T06:53:17;1.83;;;0.95;;
53261;SDS011;39658;51.090;-1.786;2023-07-31T06:55:44;5.15;;;1.23;;
53261;SDS011;39658;51.090;-1.786;2023-07-31T06:58:13;1.90;;;0.63;;
53261;SDS011;39658;51.090;-1.786;2023-07-31T07:00:40;2.17;;;0.65;;
53261;SDS011;39658;51.090;-1.786;2023-07-31T07:03:06;4.57;;;0.75;;
53261;SDS011;39658;51.090;-1.786;2023-07-31T07:05:33;3.30;;;0.98;;
53261;SDS011;39658;51.090;-1.786;2023-07-31T07:08:01;2.58;;;0.75;;
53261;SDS011;39658;51.090;-1.786;2023-07-31T07:10:28;2.85;;;0.90;;
53261;SDS011;39658;51.090;-1.786;2023-07-31T07:12:55;1.50;;;0.40;;
53261;SDS011;39658;51.090;-1.786;2023-07-31T07:15:22;2.17;;;0.93;;
53261;SDS011;39658;51.090;-1.786;2023-07-31T07:17:48;1.42;;;0.65;;
53261;SDS011;39658;51.090;-1.786;2023-07-31T07:20:15;1.77;;;0.50;;
53261;SDS011;39658;51.090;-1.786;2023-07-31T07:22:42;2.50;;;0.45;;
53261;SDS011;39658;51.090;-1.786;2023-07-31T07:25:10;1.10;;;0.70;;
53261;SDS011;39658;51.090;-1.786;2023-07-31T07:27:37;3.60;;;0.52;;
53261;SDS011;39658;51.090;-1.786;2023-07-31T07:30:04;0.75;;;0.20;;
53261;SDS011;39658;51.090;-1.786;2023-07-31T07:32:32;0.90;;;0.30;;
53261;SDS011;39658;51.090;-1.786;2023-07-31T07:34:59;1.67;;;0.60;;
53261;SDS011;39658;51.090;-1.786;2023-07-31T07:37:25;2.00;;;0.73;;
53261;SDS011;39658;51.090;-1.786;2023-07-31T07:39:52;1.23;;;0.30;;
53261;SDS011;39658;51.090;-1.786;2023-07-31T07:42:20;2.40;;;0.20;;
53261;SDS011;39658;51.090;-1.786;2023-07-31T07:44:47;1.35;;;0.50;;
53261;SDS011;39658;51.090;-1.786;2023-07-31T07:47:14;1.05;;;0.40;;
53261;SDS011;39658;51.090;-1.786;2023-07-31T07:49:41;1.42;;;0.38;;
53261;SDS011;39658;51.090;-1.786;2023-07-31T07:52:08;1.08;;;0.47;;
53261;SDS011;39658;51.090;-1.786;2023-07-31T07:54:35;0.63;;;0.38;;
53261;SDS011;39658;51.090;-1.786;2023-07-31T07:57:02;0.60;;;0.20;;
53261;SDS011;39658;51.090;-1.786;2023-07-31T07:59:30;2.45;;;0.50;;
53261;SDS011;39658;51.090;-1.786;2023-07-31T08:01:57;3.08;;;0.80;;
53261;SDS011;39658;51.090;-1.786;2023-07-31T08:04:24;0.70;;;0.20;;
53261;SDS011;39658;51.090;-1.786;2023-07-31T08:06:51;0.30;;;0.20;;
53261;SDS011;39658;51.090;-1.786;2023-07-31T08:09:17;0.85;;;0.22;;
53261;SDS011;39658;51.090;-1.786;2023-07-31T08:11:44;1.08;;;0.43;;
53261;SDS011;39658;51.090;-1.786;2023-07-31T08:14:11;1.15;;;0.50;;
53261;SDS011;39658;51.090;-1.786;2023-07-31T08:16:39;2.00;;;0.68;;
53261;SDS011;39658;51.090;-1.786;2023-07-31T08:19:06;1.35;;;0.40;;
53261;SDS011;39658;51.090;-1.786;2023-07-31T08:21:33;1.38;;;0.40;;
53261;SDS011;39658;51.090;-1.786;2023-07-31T08:23:59;2.45;;;0.88;;
53261;SDS011;39658;51.090;-1.786;2023-07-31T08:26:26;2.38;;;1.10;;
53261;SDS011;39658;51.090;-1.786;2023-07-31T08:28:53;2.00;;;0.52;;
53261;SDS011;39658;51.090;-1.786;2023-07-31T08:31:19;1.48;;;0.47;;
53261;SDS011;39658;51.090;-1.786;2023-07-31T08:33:48;2.83;;;0.80;;
53261;SDS011;39658;51.090;-1.786;2023-07-31T08:36:14;2.33;;;0.70;;
53261;SDS011;39658;51.090;-1.786;2023-07-31T08:38:41;2.10;;;0.40;;
53261;SDS011;39658;51.090;-1.786;2023-07-31T08:41:08;4.25;;;0.80;;
53261;SDS011;39658;51.090;-1.786;2023-07-31T08:43:34;3.85;;;0.70;;
53261;SDS011;39658;51.090;-1.786;2023-07-31T08:46:02;3.28;;;0.68;;
53261;SDS011;39658;51.090;-1.786;2023-07-31T08:48:29;4.07;;;0.95;;
53261;SDS011;39658;51.090;-1.786;2023-07-31T08:50:59;2.13;;;0.70;;
53261;SDS011;39658;51.090;-1.786;2023-07-31T08:53:26;1.38;;;0.40;;
53261;SDS011;39658;51.090;-1.786;2023-07-31T08:55:53;2.58;;;0.82;;
53261;SDS011;39658;51.090;-1.786;2023-07-31T08:58:21;3.70;;;0.75;;
53261;SDS011;39658;51.090;-1.786;2023-07-31T09:00:50;1.55;;;0.85;;
53261;SDS011;39658;51.090;-1.786;2023-07-31T09:03:17;3.45;;;1.08;;
53261;SDS011;39658;51.090;-1.786;2023-07-31T09:05:45;4.63;;;1.15;;
53261;SDS011;39658;51.090;-1.786;2023-07-31T09:08:15;4.95;;;1.52;;
53261;SDS011;39658;51.090;-1.786;2023-07-31T09:10:45;2.13;;;0.80;;
53261;SDS011;39658;51.090;-1.786;2023-07-31T09:13:13;4.13;;;1.10;;
53261;SDS011;39658;51.090;-1.786;2023-07-31T09:15:40;1.70;;;1.10;;
53261;SDS011;39658;51.090;-1.786;2023-07-31T09:18:10;2.97;;;0.60;;
53261;SDS011;39658;51.090;-1.786;2023-07-31T09:20:37;1.75;;;0.65;;
53261;SDS011;39658;51.090;-1.786;2023-07-31T09:23:05;1.63;;;0.55;;
53261;SDS011;39658;51.090;-1.786;2023-07-31T09:25:35;4.00;;;0.88;;
53261;SDS011;39658;51.090;-1.786;2023-07-31T09:28:03;2.10;;;0.68;;
53261;SDS011;39658;51.090;-1.786;2023-07-31T09:30:32;1.98;;;0.68;;
53261;SDS011;39658;51.090;-1.786;2023-07-31T09:33:11;2.42;;;0.65;;
53261;SDS011;39658;51.090;-1.786;2023-07-31T09:35:38;3.47;;;0.70;;
53261;SDS011;39658;51.090;-1.786;2023-07-31T09:38:06;2.33;;;0.70;;
53261;SDS011;39658;51.090;-1.786;2023-07-31T09:40:37;4.05;;;0.80;;
53261;SDS011;39658;51.090;-1.786;2023-07-31T09:43:05;1.48;;;0.47;;
53261;SDS011;39658;51.090;-1.786;2023-07-31T09:45:33;2.60;;;1.00;;
53261;SDS011;39658;51.090;-1.786;2023-07-31T09:48:02;3.33;;;0.80;;
53261;SDS011;39658;51.090;-1.786;2023-07-31T09:50:30;2.30;;;0.75;;
53261;SDS011;39658;51.090;-1.786;2023-07-31T09:52:57;2.13;;;0.50;;
53261;SDS011;39658;51.090;-1.786;2023-07-31T09:55:23;3.15;;;1.05;;
53261;SDS011;39658;51.090;-1.786;2023-07-31T09:57:52;2.83;;;0.88;;
53261;SDS011;39658;51.090;-1.786;2023-07-31T10:00:23;5.05;;;0.85;;
53261;SDS011;39658;51.090;-1.786;2023-07-31T10:02:52;2.90;;;0.93;;
53261;SDS011;39658;51.090;-1.786;2023-07-31T10:05:20;2.53;;;0.68;;
53261;SDS011;39658;51.090;-1.786;2023-07-31T10:07:49;2.85;;;0.60;;
53261;SDS011;39658;51.090;-1.786;2023-07-31T10:10:20;3.40;;;0.90;;
53261;SDS011;39658;51.090;-1.786;2023-07-31T10:12:48;3.40;;;0.80;;
53261;SDS011;39658;51.090;-1.786;2023-07-31T10:15:16;3.17;;;1.33;;
53261;SDS011;39658;51.090;-1.786;2023-07-31T10:17:44;3.08;;;0.93;;
53261;SDS011;39658;51.090;-1.786;2023-07-31T10:20:14;2.42;;;0.65;;
53261;SDS011;39658;51.090;-1.786;2023-07-31T10:22:41;5.30;;;1.15;;
53261;SDS011;39658;51.090;-1.786;2023-07-31T10:25:08;4.70;;;1.10;;
53261;SDS011;39658;51.090;-1.786;2023-07-31T10:27:36;2.38;;;0.63;;
53261;SDS011;39658;51.090;-1.786;2023-07-31T10:30:05;4.20;;;1.10;;
53261;SDS011;39658;51.090;-1.786;2023-07-31T10:32:36;2.42;;;0.57;;
53261;SDS011;39658;51.090;-1.786;2023-07-31T10:35:07;5.28;;;1.13;;
53261;SDS011;39658;51.090;-1.786;2023-07-31T10:37:39;2.35;;;0.88;;
53261;SDS011;39658;51.090;-1.786;2023-07-31T10:40:09;5.47;;;0.80;;
53261;SDS011;39658;51.090;-1.786;2023-07-31T10:42:37;2.80;;;1.08;;
53261;SDS011;39658;51.090;-1.786;2023-07-31T10:45:12;3.45;;;1.17;;
53261;SDS011;39658;51.090;-1.786;2023-07-31T10:47:41;2.47;;;0.70;;
53261;SDS011;39658;51.090;-1.786;2023-07-31T10:50:13;2.67;;;0.93;;
53261;SDS011;39658;51.090;-1.786;2023-07-31T10:52:44;1.52;;;0.90;;
53261;SDS011;39658;51.090;-1.786;2023-07-31T10:55:14;2.38;;;0.77;;
53261;SDS011;39658;51.090;-1.786;2023-07-31T10:57:51;2.20;;;0.82;;
53261;SDS011;39658;51.090;-1.786;2023-07-31T11:00:20;3.50;;;0.80;;
53261;SDS011;39658;51.090;-1.786;2023-07-31T11:03:02;5.85;;;1.83;;
53261;SDS011;39658;51.090;-1.786;2023-07-31T11:05:46;7.57;;;1.65;;
53261;SDS011;39658;51.090;-1.786;2023-07-31T11:08:15;3.70;;;1.02;;
53261;SDS011;39658;51.090;-1.786;2023-07-31T11:10:44;2.90;;;0.80;;
53261;SDS011;39658;51.090;-1.786;2023-07-31T11:13:12;3.70;;;1.08;;
53261;SDS011;39658;51.090;-1.786;2023-07-31T11:15:40;6.60;;;1.08;;
53261;SDS011;39658;51.090;-1.786;2023-07-31T11:18:08;2.80;;;0.93;;
53261;SDS011;39658;51.090;-1.786;2023-07-31T11:20:36;3.03;;;1.38;;
53261;SDS011;39658;51.090;-1.786;2023-07-31T11:23:05;4.72;;;1.55;;
53261;SDS011;39658;51.090;-1.786;2023-07-31T11:25:33;3.85;;;1.15;;
53261;SDS011;39658;51.090;-1.786;2023-07-31T11:28:04;3.75;;;1.25;;
53261;SDS011;39658;51.090;-1.786;2023-07-31T11:30:32;5.50;;;1.70;;
53261;SDS011;39658;51.090;-1.786;2023-07-31T11:32:59;2.13;;;0.70;;
53261;SDS011;39658;51.090;-1.786;2023-07-31T11:35:29;2.90;;;0.93;;
53261;SDS011;39658;51.090;-1.786;2023-07-31T11:37:57;4.97;;;0.98;;
53261;SDS011;39658;51.090;-1.786;2023-07-31T11:40:23;5.43;;;1.42;;
53261;SDS011;39658;51.090;-1.786;2023-07-31T11:42:54;3.90;;;1.40;;
53261;SDS011;39658;51.090;-1.786;2023-07-31T11:45:24;5.05;;;1.80;;
53261;SDS011;39658;51.090;-1.786;2023-07-31T11:47:53;5.55;;;1.98;;
53261;SDS011;39658;51.090;-1.786;2023-07-31T11:50:21;3.75;;;0.95;;
53261;SDS011;39658;51.090;-1.786;2023-07-31T11:52:51;4.35;;;1.65;;
53261;SDS011;39658;51.090;-1.786;2023-07-31T11:55:22;4.93;;;1.75;;
53261;SDS011;39658;51.090;-1.786;2023-07-31T11:57:49;3.40;;;0.90;;
53261;SDS011;39658;51.090;-1.786;2023-07-31T12:00:17;5.07;;;1.70;;
53261;SDS011;39658;51.090;-1.786;2023-07-31T12:02:44;4.40;;;1.50;;
53261;SDS011;39658;51.090;-1.786;2023-07-31T12:05:11;7.93;;;1.63;;
53261;SDS011;39658;51.090;-1.786;2023-07-31T12:07:45;6.82;;;1.60;;
53261;SDS011;39658;51.090;-1.786;2023-07-31T12:10:23;4.82;;;1.60;;
53261;SDS011;39658;51.090;-1.786;2023-07-31T12:12:58;5.18;;;1.52;;
53261;SDS011;39658;51.090;-1.786;2023-07-31T12:15:32;6.93;;;1.83;;
53261;SDS011;39658;51.090;-1.786;2023-07-31T12:18:00;6.95;;;1.98;;
53261;SDS011;39658;51.090;-1.786;2023-07-31T12:20:27;3.38;;;1.25;;
53261;SDS011;39658;51.090;-1.786;2023-07-31T12:22:56;4.85;;;1.13;;
53261;SDS011;39658;51.090;-1.786;2023-07-31T12:25:29;4.35;;;1.55;;
53261;SDS011;39658;51.090;-1.786;2023-07-31T12:28:04;5.13;;;1.52;;
53261;SDS011;39658;51.090;-1.786;2023-07-31T12:30:36;5.35;;;1.70;;
53261;SDS011;39658;51.090;-1.786;2023-07-31T12:33:03;5.80;;;1.63;;
53261;SDS011;39658;51.090;-1.786;2023-07-31T12:35:37;6.28;;;1.60;;
53261;SDS011;39658;51.090;-1.786;2023-07-31T12:38:06;4.65;;;1.75;;
53261;SDS011;39658;51.090;-1.786;2023-07-31T12:40:35;6.00;;;1.80;;
53261;SDS011;39658;51.090;-1.786;2023-07-31T12:43:03;6.55;;;1.73;;
53261;SDS011;39658;51.090;-1.786;2023-07-31T12:45:30;5.75;;;1.67;;
53261;SDS011;39658;51.090;-1.786;2023-07-31T12:47:58;7.30;;;1.52;;
53261;SDS011;39658;51.090;-1.786;2023-07-31T12:50:25;5.13;;;2.08;;
53261;SDS011;39658;51.090;-1.786;2023-07-31T12:52:52;5.95;;;1.50;;
53261;SDS011;39658;51.090;-1.786;2023-07-31T12:55:19;6.93;;;1.40;;
53261;SDS011;39658;51.090;-1.786;2023-07-31T12:57:48;6.85;;;1.48;;
53261;SDS011;39658;51.090;-1.786;2023-07-31T13:00:15;5.43;;;1.23;;
53261;SDS011;39658;51.090;-1.786;2023-07-31T13:02:42;4.72;;;0.98;;
53261;SDS011;39658;51.090;-1.786;2023-07-31T13:05:09;4.75;;;1.42;;
53261;SDS011;39658;51.090;-1.786;2023-07-31T13:07:35;4.82;;;1.58;;
53261;SDS011;39658;51.090;-1.786;2023-07-31T13:10:03;6.97;;;2.55;;
53261;SDS011;39658;51.090;-1.786;2023-07-31T13:12:31;7.80;;;2.03;;
53261;SDS011;39658;51.090;-1.786;2023-07-31T13:14:59;4.85;;;1.70;;
53261;SDS011;39658;51.090;-1.786;2023-07-31T13:17:26;6.55;;;1.63;;
53261;SDS011;39658;51.090;-1.786;2023-07-31T13:19:52;5.38;;;1.50;;
53261;SDS011;39658;51.090;-1.786;2023-07-31T13:22:19;3.88;;;1.70;;
53261;SDS011;39658;51.090;-1.786;2023-07-31T13:24:46;9.55;;;2.35;;
53261;SDS011;39658;51.090;-1.786;2023-07-31T13:27:13;6.13;;;1.42;;
53261;SDS011;39658;51.090;-1.786;2023-07-31T13:29:41;8.65;;;1.40;;
53261;SDS011;39658;51.090;-1.786;2023-07-31T13:32:10;4.45;;;1.35;;
53261;SDS011;39658;51.090;-1.786;2023-07-31T13:34:36;6.72;;;1.35;;
53261;SDS011;39658;51.090;-1.786;2023-07-31T13:37:04;3.78;;;1.60;;
53261;SDS011;39658;51.090;-1.786;2023-07-31T13:39:31;5.60;;;1.60;;
53261;SDS011;39658;51.090;-1.786;2023-07-31T13:41:58;4.82;;;1.00;;
53261;SDS011;39658;51.090;-1.786;2023-07-31T13:44:25;7.32;;;2.25;;
53261;SDS011;39658;51.090;-1.786;2023-07-31T13:46:52;5.45;;;1.65;;
53261;SDS011;39658;51.090;-1.786;2023-07-31T13:49:20;4.63;;;1.33;;
53261;SDS011;39658;51.090;-1.786;2023-07-31T13:51:46;9.88;;;2.17;;
53261;SDS011;39658;51.090;-1.786;2023-07-31T13:54:13;11.55;;;2.35;;
53261;SDS011;39658;51.090;-1.786;2023-07-31T13:56:41;7.22;;;1.90;;
53261;SDS011;39658;51.090;-1.786;2023-07-31T13:59:09;4.90;;;1.60;;
53261;SDS011;39658;51.090;-1.786;2023-07-31T14:01:36;8.35;;;1.60;;
53261;SDS011;39658;51.090;-1.786;2023-07-31T14:04:03;4.25;;;1.30;;
53261;SDS011;39658;51.090;-1.786;2023-07-31T14:06:31;5.70;;;1.75;;
53261;SDS011;39658;51.090;-1.786;2023-07-31T14:08:58;2.45;;;0.82;;
53261;SDS011;39658;51.090;-1.786;2023-07-31T14:11:25;5.10;;;1.30;;
53261;SDS011;39658;51.090;-1.786;2023-07-31T14:13:52;5.63;;;1.88;;
53261;SDS011;39658;51.090;-1.786;2023-07-31T14:16:19;4.20;;;1.38;;
53261;SDS011;39658;51.090;-1.786;2023-07-31T14:18:46;4.63;;;1.42;;
53261;SDS011;39658;51.090;-1.786;2023-07-31T14:21:12;8.60;;;2.35;;
53261;SDS011;39658;51.090;-1.786;2023-07-31T14:23:40;5.25;;;1.40;;
53261;SDS011;39658;51.090;-1.786;2023-07-31T14:26:08;2.95;;;1.15;;
53261;SDS011;39658;51.090;-1.786;2023-07-31T14:28:35;4.95;;;1.45;;
53261;SDS011;39658;51.090;-1.786;2023-07-31T14:31:02;5.50;;;1.80;;
53261;SDS011;39658;51.090;-1.786;2023-07-31T14:33:29;9.98;;;1.80;;
53261;SDS011;39658;51.090;-1.786;2023-07-31T14:35:56;3.10;;;1.33;;